createdAt,value
2023-05-17T00:01:59.699Z,86.63
2023-05-17T00:04:26.387Z,86.64
2023-05-17T00:06:53.038Z,86.92
2023-05-17T00:09:19.685Z,87.61
2023-05-17T00:11:46.321Z,87.17
2023-05-17T00:14:13.009Z,87.35
2023-05-17T00:16:39.634Z,87.54
2023-05-17T00:19:06.493Z,86.74
2023-05-17T00:21:33.247Z,85.54
2023-05-17T00:23:59.967Z,84.56
2023-05-17T00:26:26.662Z,84.69
2023-05-17T00:28:53.354Z,84.34
2023-05-17T00:31:20.058Z,85.04
2023-05-17T00:33:47.696Z,85.22
2023-05-17T00:36:14.486Z,85.17
2023-05-17T00:38:41.132Z,85.19
2023-05-17T00:41:07.847Z,85.20
2023-05-17T00:43:34.635Z,85.90
2023-05-17T00:46:01.463Z,85.87
2023-05-17T00:48:29.318Z,85.96
2023-05-17T00:50:56.407Z,85.52
2023-05-17T00:53:23.052Z,85.30
2023-05-17T00:55:49.670Z,85.90
2023-05-17T00:58:16.426Z,86.27
2023-05-17T01:00:43.310Z,86.65
2023-05-17T01:03:10.033Z,86.58
2023-05-17T01:05:36.807Z,86.91
2023-05-17T01:08:03.456Z,87.28
2023-05-17T01:10:39.620Z,87.84
2023-05-17T01:13:11.102Z,88.04
2023-05-17T01:15:42.254Z,87.20
2023-05-17T01:18:32.029Z,87.33
2023-05-17T01:20:59.804Z,87.86
2023-05-17T01:23:56.169Z,87.56
2023-05-17T01:26:44.261Z,88.54
2023-05-17T01:29:10.962Z,87.49
2023-05-17T01:31:37.654Z,88.02
2023-05-17T01:34:10.570Z,87.51
2023-05-17T01:36:37.422Z,87.63
2023-05-17T01:39:04.079Z,87.33
2023-05-17T01:41:35.864Z,85.40
2023-05-17T01:44:17.625Z,85.50
2023-05-17T01:46:44.378Z,85.21
2023-05-17T01:49:32.716Z,85.57
2023-05-17T01:52:21.417Z,84.59
2023-05-17T01:55:08.047Z,84.81
2023-05-17T01:57:36.751Z,84.33
2023-05-17T02:00:06.714Z,84.47
2023-05-17T02:02:33.426Z,83.69
2023-05-17T02:05:00.115Z,85.09
2023-05-17T02:07:26.813Z,85.53
2023-05-17T02:09:53.478Z,85.75
2023-05-17T02:12:20.175Z,85.26
2023-05-17T02:14:47.203Z,84.75
2023-05-17T02:17:13.887Z,83.95
2023-05-17T02:19:40.568Z,84.09
2023-05-17T02:22:07.357Z,85.06
2023-05-17T02:24:34.025Z,84.96
2023-05-17T02:27:01.028Z,85.13
2023-05-17T02:29:27.703Z,84.38
2023-05-17T02:31:54.348Z,85.12
2023-05-17T02:34:21.079Z,85.38
2023-05-17T02:36:48.673Z,84.87
2023-05-17T02:39:15.389Z,85.87
2023-05-17T02:41:42.064Z,85.74
2023-05-17T02:44:08.696Z,84.48
2023-05-17T02:46:38.253Z,85.42
2023-05-17T02:49:05.196Z,84.55
2023-05-17T02:51:31.894Z,84.97
2023-05-17T02:53:58.523Z,85.14
2023-05-17T02:56:25.215Z,85.11
2023-05-17T02:58:52.015Z,84.86
2023-05-17T03:01:18.645Z,84.69
2023-05-17T03:03:45.675Z,84.22
2023-05-17T03:06:12.522Z,84.62
2023-05-17T03:08:39.153Z,85.13
2023-05-17T03:11:06.115Z,84.68
2023-05-17T03:13:32.858Z,83.66
2023-05-17T03:15:59.547Z,84.04
2023-05-17T03:18:26.345Z,84.72
2023-05-17T03:20:53.069Z,85.32
2023-05-17T03:23:19.699Z,85.24
2023-05-17T03:25:46.362Z,86.06
2023-05-17T03:28:13.221Z,85.83
2023-05-17T03:30:39.891Z,86.54
2023-05-17T03:33:06.725Z,85.22
2023-05-17T03:35:33.399Z,85.39
2023-05-17T03:38:00.028Z,85.06
2023-05-17T03:40:26.772Z,85.14
2023-05-17T03:42:54.358Z,85.43
2023-05-17T03:45:21.052Z,85.19
2023-05-17T03:47:47.732Z,84.64
2023-05-17T03:50:14.429Z,85.19
2023-05-17T03:52:42.171Z,85.54
2023-05-17T03:55:09.555Z,84.87
2023-05-17T03:57:36.202Z,85.06
2023-05-17T04:00:06.491Z,86.47
2023-05-17T04:02:33.175Z,85.93
2023-05-17T04:04:59.825Z,85.26
2023-05-17T04:07:26.599Z,84.67
2023-05-17T04:09:53.649Z,84.61
2023-05-17T04:12:20.562Z,84.40
2023-05-17T04:14:47.197Z,84.64
2023-05-17T04:17:16.273Z,82.88
2023-05-17T04:19:43.517Z,82.26
2023-05-17T04:22:10.184Z,82.24
2023-05-17T04:24:36.892Z,81.72
2023-05-17T04:27:06.997Z,82.00
2023-05-17T04:29:33.643Z,82.93
2023-05-17T04:32:00.720Z,82.77
2023-05-17T04:34:27.831Z,83.08
2023-05-17T04:36:54.500Z,83.66
2023-05-17T04:39:21.156Z,84.33
2023-05-17T04:41:47.822Z,83.73
2023-05-17T04:44:14.511Z,82.47
2023-05-17T04:46:42.234Z,82.69
2023-05-17T04:49:08.899Z,83.34
2023-05-17T04:51:35.819Z,83.66
2023-05-17T04:54:03.302Z,83.82
2023-05-17T04:56:29.911Z,83.75
2023-05-17T04:58:56.543Z,83.12
2023-05-17T05:01:23.253Z,83.26
2023-05-17T05:03:50.043Z,82.20
2023-05-17T05:06:16.793Z,83.01
2023-05-17T05:08:43.464Z,83.81
2023-05-17T05:11:10.082Z,84.32
2023-05-17T05:13:39.025Z,84.00
2023-05-17T05:16:06.324Z,83.50
2023-05-17T05:18:33.148Z,84.03
2023-05-17T05:21:00.375Z,84.12
2023-05-17T05:23:27.052Z,83.90
2023-05-17T05:25:53.955Z,84.18
2023-05-17T05:28:20.854Z,84.34
2023-05-17T05:30:47.585Z,84.87
2023-05-17T05:33:14.355Z,84.71
2023-05-17T05:35:41.121Z,83.71
2023-05-17T05:38:08.049Z,83.79
2023-05-17T05:40:34.843Z,83.77
2023-05-17T05:43:01.489Z,84.92
2023-05-17T05:45:28.163Z,83.89
2023-05-17T05:47:54.878Z,84.77
2023-05-17T05:50:21.735Z,85.34
2023-05-17T05:52:50.881Z,84.94
2023-05-17T05:55:17.562Z,84.00
2023-05-17T05:57:44.201Z,84.20
2023-05-17T06:00:12.058Z,84.33
2023-05-17T06:02:38.840Z,85.12
2023-05-17T06:05:05.863Z,84.59
2023-05-17T06:07:32.568Z,84.17
2023-05-17T06:09:59.200Z,84.72
2023-05-17T06:12:26.650Z,85.16
2023-05-17T06:14:53.363Z,84.87
2023-05-17T06:17:21.488Z,85.43
2023-05-17T06:19:49.480Z,84.24
2023-05-17T06:22:16.389Z,84.20
2023-05-17T06:24:43.128Z,84.23
2023-05-17T06:27:09.828Z,84.24
2023-05-17T06:29:36.524Z,83.98
2023-05-17T06:32:03.301Z,84.46
2023-05-17T06:34:29.971Z,84.52
2023-05-17T06:36:56.711Z,83.99
2023-05-17T06:39:23.339Z,83.91
2023-05-17T06:41:50.381Z,84.53
2023-05-17T06:44:17.921Z,84.81
2023-05-17T06:46:44.547Z,85.11
2023-05-17T06:49:11.334Z,84.06
2023-05-17T06:51:38.030Z,84.56
2023-05-17T06:54:04.705Z,83.68
2023-05-17T06:56:31.886Z,83.22
2023-05-17T06:58:58.608Z,83.40
2023-05-17T07:01:25.870Z,83.08
2023-05-17T07:03:52.814Z,84.31
2023-05-17T07:06:19.926Z,81.62
2023-05-17T07:08:46.712Z,82.55
2023-05-17T07:11:13.354Z,83.24
2023-05-17T07:13:40.028Z,82.43
2023-05-17T07:16:10.319Z,82.97
2023-05-17T07:18:37.120Z,83.56
2023-05-17T07:21:04.093Z,84.18
2023-05-17T07:23:30.762Z,84.50
2023-05-17T07:25:57.671Z,84.86
2023-05-17T07:28:24.329Z,85.02
2023-05-17T07:30:51.179Z,84.49
2023-05-17T07:33:17.831Z,85.48
2023-05-17T07:35:44.524Z,84.80
2023-05-17T07:38:11.181Z,85.07
2023-05-17T07:40:38.050Z,84.27
2023-05-17T07:43:04.677Z,84.56
2023-05-17T07:45:31.547Z,83.75
2023-05-17T07:47:58.473Z,83.53
2023-05-17T07:50:26.080Z,82.75
2023-05-17T07:52:52.739Z,82.34
2023-05-17T07:55:20.689Z,82.60
2023-05-17T07:57:48.311Z,82.32
2023-05-17T08:00:15.540Z,83.43
2023-05-17T08:02:42.751Z,83.34
2023-05-17T08:05:09.940Z,83.12
2023-05-17T08:07:36.648Z,82.41
2023-05-17T08:10:03.358Z,82.29
2023-05-17T08:12:30.034Z,82.77
2023-05-17T08:14:56.701Z,83.64
2023-05-17T08:17:23.456Z,84.49
2023-05-17T08:19:51.978Z,83.73
2023-05-17T08:22:19.966Z,83.80
2023-05-17T08:24:46.625Z,82.98
2023-05-17T08:27:13.341Z,81.61
2023-05-17T08:29:40.104Z,82.36
2023-05-17T08:32:07.204Z,82.69
2023-05-17T08:34:33.860Z,82.16
2023-05-17T08:37:02.243Z,81.90
2023-05-17T08:39:28.956Z,82.45
2023-05-17T08:41:59.542Z,81.78
2023-05-17T08:44:28.078Z,80.52
2023-05-17T08:46:55.296Z,80.76
2023-05-17T08:49:22.524Z,81.72
2023-05-17T08:51:53.676Z,81.72
2023-05-17T08:54:20.324Z,82.57
2023-05-17T08:56:47.281Z,82.28
2023-05-17T08:59:13.922Z,82.21
2023-05-17T09:01:41.412Z,82.10
2023-05-17T09:04:09.889Z,81.97
2023-05-17T09:06:37.251Z,81.04
2023-05-17T09:09:04.741Z,81.93
2023-05-17T09:11:33.198Z,82.24
2023-05-17T09:14:05.284Z,82.23
2023-05-17T09:16:33.910Z,83.25
2023-05-17T09:19:01.381Z,82.96
2023-05-17T09:21:28.501Z,83.01
2023-05-17T09:24:05.306Z,82.41
2023-05-17T09:26:46.122Z,81.92
2023-05-17T09:29:16.326Z,81.54
2023-05-17T09:31:43.327Z,81.91
2023-05-17T09:34:10.327Z,82.54
2023-05-17T09:36:37.728Z,82.60
2023-05-17T09:39:06.117Z,82.63
2023-05-17T09:41:33.815Z,81.74
2023-05-17T09:44:01.463Z,81.77
2023-05-17T09:46:28.992Z,82.02
2023-05-17T09:48:56.487Z,82.22
2023-05-17T09:51:34.095Z,82.46
2023-05-17T09:54:00.921Z,83.56
2023-05-17T09:56:31.402Z,83.69
2023-05-17T09:59:01.372Z,83.56
2023-05-17T10:01:29.271Z,82.45
2023-05-17T10:03:56.625Z,83.28
2023-05-17T10:06:38.518Z,82.27
2023-05-17T10:09:10.952Z,82.20
2023-05-17T10:11:37.881Z,82.26
2023-05-17T10:14:32.148Z,81.64
2023-05-17T10:16:59.006Z,81.69
2023-05-17T10:19:25.875Z,81.25
2023-05-17T10:21:53.210Z,81.73
2023-05-17T10:24:20.801Z,81.59
2023-05-17T10:26:52.049Z,81.77
2023-05-17T10:29:21.147Z,81.82
2023-05-17T10:31:48.016Z,81.64
2023-05-17T10:34:17.275Z,81.63
2023-05-17T10:36:44.137Z,82.16
2023-05-17T10:39:11.037Z,82.12
2023-05-17T10:41:39.980Z,82.66
2023-05-17T10:44:08.040Z,81.97
2023-05-17T10:46:34.790Z,81.83
2023-05-17T10:49:01.755Z,82.00
2023-05-17T10:51:36.773Z,82.00
2023-05-17T10:54:06.061Z,81.66
2023-05-17T10:56:32.966Z,80.86
2023-05-17T10:59:35.829Z,81.18
2023-05-17T11:02:06.437Z,82.67
2023-05-17T11:04:37.428Z,82.99
2023-05-17T11:07:22.383Z,83.28
2023-05-17T11:10:06.275Z,83.83
2023-05-17T11:12:43.181Z,82.84
2023-05-17T11:15:11.127Z,82.54
2023-05-17T11:17:58.280Z,83.54
2023-05-17T11:20:25.033Z,82.30
2023-05-17T11:23:00.919Z,82.58
2023-05-17T11:25:31.784Z,81.65
2023-05-17T11:27:58.632Z,81.12
2023-05-17T11:30:30.669Z,79.28
2023-05-17T11:33:02.853Z,79.48
2023-05-17T11:35:37.285Z,78.33
2023-05-17T11:38:16.590Z,78.93
2023-05-17T11:40:43.690Z,78.99
2023-05-17T11:43:17.872Z,80.06
2023-05-17T11:45:58.137Z,80.56
2023-05-17T11:48:26.157Z,80.54
2023-05-17T11:50:54.610Z,78.82
2023-05-17T11:53:21.655Z,78.50
2023-05-17T11:55:52.296Z,79.26
2023-05-17T11:58:24.507Z,78.69
2023-05-17T12:00:55.317Z,78.27
2023-05-17T12:03:25.975Z,78.81
2023-05-17T12:06:02.328Z,79.32
2023-05-17T12:08:28.993Z,78.93
2023-05-17T12:10:57.173Z,78.82
2023-05-17T12:13:23.864Z,78.37
2023-05-17T12:16:06.105Z,78.73
2023-05-17T12:18:37.055Z,79.38
2023-05-17T12:21:04.061Z,79.49
2023-05-17T12:23:38.151Z,78.60
2023-05-17T12:26:12.373Z,78.18
2023-05-17T12:28:40.019Z,78.50
2023-05-17T12:31:15.332Z,78.94
2023-05-17T12:33:43.035Z,77.90
2023-05-17T12:36:10.899Z,78.44
2023-05-17T12:38:38.437Z,78.50
2023-05-17T12:41:06.045Z,79.22
2023-05-17T12:43:37.085Z,80.32
2023-05-17T12:46:07.903Z,79.70
2023-05-17T12:48:38.634Z,79.90
2023-05-17T12:51:16.369Z,79.42
2023-05-17T12:54:01.191Z,79.12
2023-05-17T12:56:28.753Z,79.78
2023-05-17T12:59:13.982Z,78.77
2023-05-17T13:01:44.016Z,79.49
2023-05-17T13:04:10.967Z,78.36
2023-05-17T13:06:56.943Z,76.97
2023-05-17T13:09:24.914Z,77.49
2023-05-17T13:12:05.677Z,78.29
2023-05-17T13:14:41.964Z,78.54
2023-05-17T13:17:11.556Z,78.45
2023-05-17T13:19:38.769Z,78.54
2023-05-17T13:22:06.013Z,78.18
2023-05-17T13:24:36.649Z,78.76
2023-05-17T13:27:03.955Z,76.79
2023-05-17T13:29:39.008Z,77.33
2023-05-17T13:32:07.014Z,77.14
2023-05-17T13:34:33.669Z,77.53
2023-05-17T13:37:01.249Z,78.14
2023-05-17T13:39:27.955Z,78.14
2023-05-17T13:41:54.618Z,77.97
2023-05-17T13:44:21.269Z,77.33
2023-05-17T13:46:47.946Z,78.56
2023-05-17T13:49:14.805Z,78.40
2023-05-17T13:51:42.676Z,79.12
2023-05-17T13:54:10.546Z,78.58
2023-05-17T13:56:37.295Z,78.16
2023-05-17T13:59:04.021Z,77.26
2023-05-17T14:01:31.041Z,75.08
2023-05-17T14:03:57.825Z,76.77
2023-05-17T14:06:24.681Z,76.00
2023-05-17T14:08:53.301Z,77.55
2023-05-17T14:11:19.988Z,77.34
2023-05-17T14:13:46.877Z,78.07
2023-05-17T14:16:14.548Z,78.29
2023-05-17T14:18:41.519Z,78.90
2023-05-17T14:21:08.376Z,79.95
2023-05-17T14:23:35.305Z,79.78
2023-05-17T14:26:05.294Z,79.44
2023-05-17T14:28:31.963Z,79.61
2023-05-17T14:30:58.792Z,78.41
2023-05-17T14:33:26.991Z,78.79
2023-05-17T14:35:53.768Z,77.88
2023-05-17T14:38:23.228Z,78.41
2023-05-17T14:40:50.141Z,78.90
2023-05-17T14:43:17.020Z,79.51
2023-05-17T14:45:43.684Z,78.65
2023-05-17T14:48:10.522Z,77.68
2023-05-17T14:50:37.242Z,77.22
2023-05-17T14:53:03.948Z,78.51
2023-05-17T14:55:30.905Z,77.96
2023-05-17T14:57:58.075Z,78.33
2023-05-17T15:00:25.633Z,78.20
2023-05-17T15:02:52.382Z,79.61
2023-05-17T15:05:20.023Z,80.21
2023-05-17T15:07:47.603Z,80.89
2023-05-17T15:10:15.023Z,80.60
2023-05-17T15:12:41.648Z,81.56
2023-05-17T15:15:08.987Z,80.69
2023-05-17T15:17:35.666Z,80.51
2023-05-17T15:20:02.450Z,80.29
2023-05-17T15:22:29.474Z,80.24
2023-05-17T15:24:57.788Z,80.55
2023-05-17T15:27:24.492Z,81.61
2023-05-17T15:29:51.301Z,81.50
2023-05-17T15:32:18.048Z,81.36
2023-05-17T15:34:45.479Z,81.72
2023-05-17T15:37:12.229Z,81.70
2023-05-17T15:39:39.110Z,81.82
2023-05-17T15:42:05.994Z,81.64
2023-05-17T15:44:32.737Z,81.32
2023-05-17T15:47:01.497Z,81.26
2023-05-17T15:49:29.802Z,81.70
2023-05-17T15:51:56.751Z,82.22
2023-05-17T15:54:23.430Z,82.20
2023-05-17T15:56:50.099Z,82.51
2023-05-17T15:59:17.404Z,81.64
2023-05-17T16:01:46.337Z,81.01
2023-05-17T16:04:13.604Z,82.49
2023-05-17T16:06:40.697Z,82.04
2023-05-17T16:09:07.873Z,82.21
2023-05-17T16:11:35.880Z,81.96
2023-05-17T16:14:02.698Z,81.64
2023-05-17T16:16:29.649Z,81.74
2023-05-17T16:18:57.810Z,82.64
2023-05-17T16:21:24.625Z,81.93
2023-05-17T16:23:51.791Z,81.54
2023-05-17T16:26:18.895Z,81.75
2023-05-17T16:28:45.814Z,81.89
2023-05-17T16:31:12.619Z,81.45
2023-05-17T16:33:41.591Z,81.79
2023-05-17T16:36:12.445Z,81.77
2023-05-17T16:38:39.226Z,82.07
2023-05-17T16:41:06.117Z,81.39
2023-05-17T16:43:32.867Z,81.00
2023-05-17T16:45:59.611Z,81.05
2023-05-17T16:48:26.396Z,80.21
2023-05-17T16:50:53.290Z,79.88
2023-05-17T16:53:20.360Z,80.39
2023-05-17T16:55:47.043Z,80.83
2023-05-17T16:58:13.697Z,81.92
2023-05-17T17:00:40.652Z,81.88
2023-05-17T17:03:09.645Z,81.79
2023-05-17T17:05:36.781Z,81.52
2023-05-17T17:08:03.516Z,82.46
2023-05-17T17:10:30.378Z,82.47
2023-05-17T17:12:57.289Z,82.58
2023-05-17T17:15:24.132Z,82.57
2023-05-17T17:17:50.827Z,83.08
2023-05-17T17:20:18.124Z,83.25
2023-05-17T17:22:44.784Z,83.29
2023-05-17T17:25:11.472Z,83.96
2023-05-17T17:27:38.190Z,83.92
2023-05-17T17:30:05.549Z,84.09
2023-05-17T17:32:32.277Z,84.55
2023-05-17T17:34:59.087Z,84.57
2023-05-17T17:37:26.189Z,83.99
2023-05-17T17:39:52.899Z,83.88
2023-05-17T17:42:19.625Z,83.76
2023-05-17T17:44:46.325Z,84.17
2023-05-17T17:47:13.122Z,83.78
2023-05-17T17:49:39.985Z,83.21
2023-05-17T17:52:06.765Z,83.84
2023-05-17T17:54:33.497Z,83.97
2023-05-17T17:57:00.183Z,84.21
2023-05-17T17:59:26.926Z,83.41
2023-05-17T18:01:53.910Z,83.01
2023-05-17T18:04:20.717Z,82.94
2023-05-17T18:06:47.585Z,83.67
2023-05-17T18:09:14.300Z,83.53
2023-05-17T18:11:41.110Z,83.53
2023-05-17T18:14:08.226Z,83.35
2023-05-17T18:16:35.255Z,81.61
2023-05-17T18:19:14.438Z,81.85
2023-05-17T18:21:41.820Z,81.50
2023-05-17T18:24:08.866Z,82.18
2023-05-17T18:26:35.526Z,81.68
2023-05-17T18:29:02.169Z,82.00
2023-05-17T18:31:28.866Z,82.27
2023-05-17T18:33:57.360Z,82.16
2023-05-17T18:36:24.158Z,81.92
2023-05-17T18:38:50.909Z,81.48
2023-05-17T18:41:17.676Z,81.81
2023-05-17T18:43:44.376Z,81.45
2023-05-17T18:46:11.057Z,81.59
2023-05-17T18:48:38.901Z,81.12
2023-05-17T18:51:06.811Z,80.49
2023-05-17T18:53:33.613Z,80.45
2023-05-17T18:56:02.601Z,80.84
2023-05-17T18:58:29.566Z,80.64
2023-05-17T19:00:56.358Z,81.03
2023-05-17T19:03:23.020Z,80.99
2023-05-17T19:05:49.717Z,80.94
2023-05-17T19:08:16.459Z,81.23
2023-05-17T19:10:43.112Z,81.67
2023-05-17T19:13:09.856Z,81.73
2023-05-17T19:15:36.613Z,81.71
2023-05-17T19:18:03.439Z,81.51
2023-05-17T19:20:30.617Z,81.42
2023-05-17T19:22:57.513Z,81.39
2023-05-17T19:25:24.188Z,80.79
2023-05-17T19:27:50.963Z,81.21
2023-05-17T19:30:17.673Z,82.06
2023-05-17T19:32:44.407Z,81.06
2023-05-17T19:35:11.343Z,81.75
2023-05-17T19:37:38.021Z,81.73
2023-05-17T19:40:07.987Z,81.92
2023-05-17T19:42:34.603Z,82.46
2023-05-17T19:45:01.967Z,82.86
2023-05-17T19:47:28.678Z,82.90
2023-05-17T19:49:55.916Z,82.67
2023-05-17T19:52:22.727Z,82.65
2023-05-17T19:54:49.407Z,83.22
2023-05-17T19:57:16.076Z,83.23
2023-05-17T19:59:42.851Z,83.02
2023-05-17T20:02:09.771Z,82.51
2023-05-17T20:04:36.599Z,83.23
2023-05-17T20:07:03.552Z,83.57
2023-05-17T20:09:32.052Z,82.57
2023-05-17T20:11:58.817Z,82.81
2023-05-17T20:14:27.095Z,82.89
2023-05-17T20:16:54.039Z,83.03
2023-05-17T20:19:20.946Z,83.38
2023-05-17T20:21:47.801Z,83.95
2023-05-17T20:24:14.447Z,83.67
2023-05-17T20:26:41.157Z,83.98
2023-05-17T20:29:08.150Z,84.06
2023-05-17T20:31:35.366Z,84.32
2023-05-17T20:34:02.418Z,84.10
2023-05-17T20:36:29.158Z,82.90
2023-05-17T20:38:56.034Z,83.99
2023-05-17T20:41:22.730Z,83.64
2023-05-17T20:43:52.745Z,83.30
2023-05-17T20:46:19.624Z,82.88
2023-05-17T20:48:48.169Z,82.42
2023-05-17T20:51:15.577Z,81.98
2023-05-17T20:53:42.514Z,82.30
2023-05-17T20:56:09.277Z,82.10
2023-05-17T20:58:36.045Z,82.39
2023-05-17T21:01:02.898Z,82.87
2023-05-17T21:03:33.280Z,82.84
2023-05-17T21:06:05.396Z,83.09
2023-05-17T21:08:32.926Z,83.23
2023-05-17T21:10:59.797Z,83.19
2023-05-17T21:13:26.630Z,83.41
2023-05-17T21:15:56.409Z,82.57
2023-05-17T21:18:23.965Z,82.53
2023-05-17T21:20:51.094Z,81.38
2023-05-17T21:23:18.114Z,81.08
2023-05-17T21:25:44.777Z,80.70
2023-05-17T21:28:11.553Z,79.99
2023-05-17T21:30:38.510Z,80.50
2023-05-17T21:33:05.622Z,80.72
2023-05-17T21:35:32.550Z,81.43
2023-05-17T21:37:59.217Z,80.37
2023-05-17T21:40:25.981Z,80.85
2023-05-17T21:42:52.680Z,80.59
2023-05-17T21:45:19.467Z,80.81
2023-05-17T21:47:46.141Z,80.64
2023-05-17T21:50:12.932Z,80.44
2023-05-17T21:52:39.599Z,80.01
2023-05-17T21:55:07.137Z,79.90
2023-05-17T21:57:36.462Z,79.20
2023-05-17T22:00:04.936Z,79.92
2023-05-17T22:02:34.603Z,80.13
2023-05-17T22:05:01.676Z,79.68
2023-05-17T22:07:28.365Z,79.50
2023-05-17T22:09:55.255Z,79.48
2023-05-17T22:12:25.789Z,78.86
2023-05-17T22:14:56.827Z,78.87
2023-05-17T22:17:32.362Z,79.39
2023-05-17T22:20:09.781Z,78.68
2023-05-17T22:22:37.583Z,78.83
2023-05-17T22:25:04.899Z,78.77
2023-05-17T22:27:31.524Z,79.31
2023-05-17T22:29:58.274Z,79.64
2023-05-17T22:32:25.007Z,79.08
2023-05-17T22:34:52.890Z,79.05
2023-05-17T22:37:22.860Z,79.03
2023-05-17T22:39:49.613Z,79.06
2023-05-17T22:42:16.347Z,78.78
2023-05-17T22:44:43.027Z,78.92
2023-05-17T22:47:14.900Z,78.36
2023-05-17T22:49:42.006Z,78.59
2023-05-17T22:52:09.157Z,78.77
2023-05-17T22:54:36.730Z,79.09
2023-05-17T22:57:03.684Z,78.98
2023-05-17T22:59:30.591Z,79.20
2023-05-17T23:01:57.374Z,78.88
2023-05-17T23:04:26.943Z,78.58
2023-05-17T23:06:54.158Z,78.31
2023-05-17T23:09:21.966Z,78.69
2023-05-17T23:11:50.159Z,78.53
2023-05-17T23:14:17.765Z,77.99
2023-05-17T23:16:44.569Z,78.40
2023-05-17T23:19:11.266Z,78.21
2023-05-17T23:21:39.658Z,78.00
2023-05-17T23:24:08.141Z,77.61
2023-05-17T23:26:35.162Z,77.40
2023-05-17T23:29:03.578Z,77.33
2023-05-17T23:31:30.421Z,76.85
2023-05-17T23:33:57.139Z,76.48
2023-05-17T23:36:23.855Z,75.14
2023-05-17T23:38:50.565Z,75.70
2023-05-17T23:41:18.442Z,75.75
2023-05-17T23:43:45.272Z,75.66
2023-05-17T23:46:13.872Z,76.34
2023-05-17T23:48:40.788Z,76.27
2023-05-17T23:51:07.923Z,76.01
2023-05-17T23:53:34.589Z,75.21
2023-05-17T23:56:01.473Z,75.45
2023-05-17T23:58:28.130Z,75.87
